sensor_id;sensor_type;location;lat;lon;timestamp;P1;durP1;ratioP1;P2;durP2;ratioP2
35110;SDS011;21290;50.158;8.658;2024-02-04T00:00:17;0.63;;;0.63;;
35110;SDS011;21290;50.158;8.658;2024-02-04T00:02:44;1.67;;;0.60;;
35110;SDS011;21290;50.158;8.658;2024-02-04T00:05:11;1.63;;;0.80;;
35110;SDS011;21290;50.158;8.658;2024-02-04T00:07:38;0.80;;;0.68;;
35110;SDS011;21290;50.158;8.658;2024-02-04T00:10:05;2.95;;;0.68;;
35110;SDS011;21290;50.158;8.658;2024-02-04T00:12:32;1.38;;;0.77;;
35110;SDS011;21290;50.158;8.658;2024-02-04T00:14:59;1.40;;;0.73;;
35110;SDS011;21290;50.158;8.658;2024-02-04T00:17:26;0.85;;;0.60;;
35110;SDS011;21290;50.158;8.658;2024-02-04T00:19:56;1.50;;;0.60;;
35110;SDS011;21290;50.158;8.658;2024-02-04T00:22:23;1.42;;;0.93;;
35110;SDS011;21290;50.158;8.658;2024-02-04T00:24:50;0.70;;;0.70;;
35110;SDS011;21290;50.158;8.658;2024-02-04T00:27:16;0.65;;;0.65;;
35110;SDS011;21290;50.158;8.658;2024-02-04T00:29:43;0.80;;;0.80;;
35110;SDS011;21290;50.158;8.658;2024-02-04T00:32:10;1.13;;;0.90;;
35110;SDS011;21290;50.158;8.658;2024-02-04T00:34:37;0.60;;;0.60;;
35110;SDS011;21290;50.158;8.658;2024-02-04T00:37:04;0.70;;;0.70;;
35110;SDS011;21290;50.158;8.658;2024-02-04T00:39:31;0.65;;;0.65;;
35110;SDS011;21290;50.158;8.658;2024-02-04T00:41:58;1.42;;;0.80;;
35110;SDS011;21290;50.158;8.658;2024-02-04T00:44:25;1.23;;;0.70;;
35110;SDS011;21290;50.158;8.658;2024-02-04T00:46:52;0.85;;;0.60;;
35110;SDS011;21290;50.158;8.658;2024-02-04T00:49:18;1.65;;;0.93;;
35110;SDS011;21290;50.158;8.658;2024-02-04T00:51:45;1.23;;;0.73;;
35110;SDS011;21290;50.158;8.658;2024-02-04T00:54:12;0.60;;;0.60;;
35110;SDS011;21290;50.158;8.658;2024-02-04T00:56:39;0.60;;;0.60;;
35110;SDS011;21290;50.158;8.658;2024-02-04T00:59:05;1.42;;;0.77;;
35110;SDS011;21290;50.158;8.658;2024-02-04T01:01:32;1.75;;;0.85;;
35110;SDS011;21290;50.158;8.658;2024-02-04T01:03:59;2.45;;;0.68;;
35110;SDS011;21290;50.158;8.658;2024-02-04T01:06:26;1.55;;;0.80;;
35110;SDS011;21290;50.158;8.658;2024-02-04T01:09:02;0.77;;;0.77;;
35110;SDS011;21290;50.158;8.658;2024-02-04T01:11:29;0.63;;;0.63;;
35110;SDS011;21290;50.158;8.658;2024-02-04T01:13:55;0.82;;;0.70;;
35110;SDS011;21290;50.158;8.658;2024-02-04T01:16:22;0.65;;;0.65;;
35110;SDS011;21290;50.158;8.658;2024-02-04T01:18:49;0.88;;;0.65;;
35110;SDS011;21290;50.158;8.658;2024-02-04T01:21:16;0.88;;;0.82;;
35110;SDS011;21290;50.158;8.658;2024-02-04T01:23:42;0.80;;;0.75;;
35110;SDS011;21290;50.158;8.658;2024-02-04T01:26:09;2.85;;;0.70;;
35110;SDS011;21290;50.158;8.658;2024-02-04T01:28:36;1.02;;;0.63;;
35110;SDS011;21290;50.158;8.658;2024-02-04T01:31:03;0.75;;;0.75;;
35110;SDS011;21290;50.158;8.658;2024-02-04T01:33:30;1.10;;;0.60;;
35110;SDS011;21290;50.158;8.658;2024-02-04T01:35:57;0.95;;;0.50;;
35110;SDS011;21290;50.158;8.658;2024-02-04T01:38:24;1.38;;;0.75;;
35110;SDS011;21290;50.158;8.658;2024-02-04T01:40:51;0.60;;;0.60;;
35110;SDS011;21290;50.158;8.658;2024-02-04T01:43:19;0.82;;;0.70;;
35110;SDS011;21290;50.158;8.658;2024-02-04T01:45:47;2.55;;;0.90;;
35110;SDS011;21290;50.158;8.658;2024-02-04T01:48:16;0.73;;;0.52;;
35110;SDS011;21290;50.158;8.658;2024-02-04T01:50:44;0.47;;;0.43;;
35110;SDS011;21290;50.158;8.658;2024-02-04T01:53:10;0.60;;;0.60;;
35110;SDS011;21290;50.158;8.658;2024-02-04T01:55:38;0.70;;;0.70;;
35110;SDS011;21290;50.158;8.658;2024-02-04T01:58:05;0.73;;;0.70;;
35110;SDS011;21290;50.158;8.658;2024-02-04T02:00:33;1.08;;;0.80;;
35110;SDS011;21290;50.158;8.658;2024-02-04T02:03:00;1.92;;;0.80;;
35110;SDS011;21290;50.158;8.658;2024-02-04T02:05:28;2.78;;;0.60;;
35110;SDS011;21290;50.158;8.658;2024-02-04T02:07:55;0.60;;;0.60;;
35110;SDS011;21290;50.158;8.658;2024-02-04T02:10:22;1.25;;;0.82;;
35110;SDS011;21290;50.158;8.658;2024-02-04T02:12:51;0.63;;;0.52;;
35110;SDS011;21290;50.158;8.658;2024-02-04T02:15:23;0.70;;;0.60;;
35110;SDS011;21290;50.158;8.658;2024-02-04T02:17:57;1.08;;;0.70;;
35110;SDS011;21290;50.158;8.658;2024-02-04T02:23:14;2.05;;;0.90;;
35110;SDS011;21290;50.158;8.658;2024-02-04T02:25:48;1.02;;;0.68;;
35110;SDS011;21290;50.158;8.658;2024-02-04T02:28:17;0.60;;;0.60;;
35110;SDS011;21290;50.158;8.658;2024-02-04T02:30:44;0.95;;;0.70;;
35110;SDS011;21290;50.158;8.658;2024-02-04T02:33:11;0.70;;;0.50;;
35110;SDS011;21290;50.158;8.658;2024-02-04T02:35:37;0.80;;;0.77;;
35110;SDS011;21290;50.158;8.658;2024-02-04T02:40:54;1.60;;;0.70;;
35110;SDS011;21290;50.158;8.658;2024-02-04T02:43:25;1.42;;;0.80;;
35110;SDS011;21290;50.158;8.658;2024-02-04T02:45:53;4.85;;;0.80;;
35110;SDS011;21290;50.158;8.658;2024-02-04T02:48:20;0.95;;;0.57;;
35110;SDS011;21290;50.158;8.658;2024-02-04T02:50:48;0.50;;;0.50;;
35110;SDS011;21290;50.158;8.658;2024-02-04T02:53:14;2.47;;;1.00;;
35110;SDS011;21290;50.158;8.658;2024-02-04T02:55:42;0.80;;;0.80;;
35110;SDS011;21290;50.158;8.658;2024-02-04T02:58:08;2.00;;;1.08;;
35110;SDS011;21290;50.158;8.658;2024-02-04T03:00:35;0.90;;;0.90;;
35110;SDS011;21290;50.158;8.658;2024-02-04T03:03:03;1.80;;;1.10;;
35110;SDS011;21290;50.158;8.658;2024-02-04T03:05:30;2.55;;;1.20;;
35110;SDS011;21290;50.158;8.658;2024-02-04T03:07:58;1.20;;;1.10;;
35110;SDS011;21290;50.158;8.658;2024-02-04T03:10:25;1.30;;;1.17;;
35110;SDS011;21290;50.158;8.658;2024-02-04T03:12:51;2.83;;;1.50;;
35110;SDS011;21290;50.158;8.658;2024-02-04T03:15:18;1.52;;;1.42;;
35110;SDS011;21290;50.158;8.658;2024-02-04T03:17:45;1.55;;;1.45;;
35110;SDS011;21290;50.158;8.658;2024-02-04T03:20:12;2.53;;;1.67;;
35110;SDS011;21290;50.158;8.658;2024-02-04T03:22:39;1.70;;;1.58;;
35110;SDS011;21290;50.158;8.658;2024-02-04T03:25:06;1.58;;;1.48;;
35110;SDS011;21290;50.158;8.658;2024-02-04T03:27:33;3.20;;;1.60;;
35110;SDS011;21290;50.158;8.658;2024-02-04T03:30:00;3.83;;;1.77;;
35110;SDS011;21290;50.158;8.658;2024-02-04T03:32:27;2.65;;;1.80;;
35110;SDS011;21290;50.158;8.658;2024-02-04T03:35:00;2.10;;;1.83;;
35110;SDS011;21290;50.158;8.658;2024-02-04T03:37:27;2.13;;;1.90;;
35110;SDS011;21290;50.158;8.658;2024-02-04T03:39:54;2.13;;;1.92;;
35110;SDS011;21290;50.158;8.658;2024-02-04T03:42:21;2.13;;;1.92;;
35110;SDS011;21290;50.158;8.658;2024-02-04T03:44:48;2.80;;;2.10;;
35110;SDS011;21290;50.158;8.658;2024-02-04T03:47:15;2.15;;;1.95;;
35110;SDS011;21290;50.158;8.658;2024-02-04T03:49:42;2.30;;;2.10;;
35110;SDS011;21290;50.158;8.658;2024-02-04T03:52:09;2.65;;;2.17;;
35110;SDS011;21290;50.158;8.658;2024-02-04T03:54:35;3.10;;;1.80;;
35110;SDS011;21290;50.158;8.658;2024-02-04T03:57:02;2.50;;;2.10;;
35110;SDS011;21290;50.158;8.658;2024-02-04T03:59:29;4.32;;;2.40;;
35110;SDS011;21290;50.158;8.658;2024-02-04T04:01:56;2.42;;;2.22;;
35110;SDS011;21290;50.158;8.658;2024-02-04T04:04:24;2.85;;;2.42;;
35110;SDS011;21290;50.158;8.658;2024-02-04T04:06:52;1.85;;;1.70;;
35110;SDS011;21290;50.158;8.658;2024-02-04T04:09:19;3.40;;;2.13;;
35110;SDS011;21290;50.158;8.658;2024-02-04T04:11:46;2.35;;;2.00;;
35110;SDS011;21290;50.158;8.658;2024-02-04T04:14:13;2.88;;;2.10;;
35110;SDS011;21290;50.158;8.658;2024-02-04T04:16:39;3.50;;;2.30;;
35110;SDS011;21290;50.158;8.658;2024-02-04T04:19:06;3.92;;;3.10;;
35110;SDS011;21290;50.158;8.658;2024-02-04T04:21:33;2.70;;;2.30;;
35110;SDS011;21290;50.158;8.658;2024-02-04T04:24:01;3.90;;;2.03;;
35110;SDS011;21290;50.158;8.658;2024-02-04T04:26:28;3.05;;;2.05;;
35110;SDS011;21290;50.158;8.658;2024-02-04T04:28:55;2.42;;;1.92;;
35110;SDS011;21290;50.158;8.658;2024-02-04T04:31:21;2.95;;;2.28;;
35110;SDS011;21290;50.158;8.658;2024-02-04T04:33:48;3.70;;;2.20;;
35110;SDS011;21290;50.158;8.658;2024-02-04T04:36:15;4.60;;;2.10;;
35110;SDS011;21290;50.158;8.658;2024-02-04T04:38:42;2.00;;;1.60;;
35110;SDS011;21290;50.158;8.658;2024-02-04T04:41:08;1.95;;;1.75;;
35110;SDS011;21290;50.158;8.658;2024-02-04T04:43:38;1.98;;;1.80;;
35110;SDS011;21290;50.158;8.658;2024-02-04T04:46:04;4.43;;;2.00;;
35110;SDS011;21290;50.158;8.658;2024-02-04T04:48:31;2.55;;;2.05;;
35110;SDS011;21290;50.158;8.658;2024-02-04T04:50:58;2.38;;;1.67;;
35110;SDS011;21290;50.158;8.658;2024-02-04T04:53:25;1.83;;;1.52;;
35110;SDS011;21290;50.158;8.658;2024-02-04T04:55:52;2.35;;;1.40;;
35110;SDS011;21290;50.158;8.658;2024-02-04T04:58:18;3.15;;;1.30;;
35110;SDS011;21290;50.158;8.658;2024-02-04T05:00:45;1.67;;;1.30;;
35110;SDS011;21290;50.158;8.658;2024-02-04T05:03:12;1.40;;;1.30;;
35110;SDS011;21290;50.158;8.658;2024-02-04T05:05:39;2.13;;;1.25;;
35110;SDS011;21290;50.158;8.658;2024-02-04T05:08:05;1.58;;;1.40;;
35110;SDS011;21290;50.158;8.658;2024-02-04T05:10:32;1.33;;;1.20;;
35110;SDS011;21290;50.158;8.658;2024-02-04T05:12:59;1.75;;;1.15;;
35110;SDS011;21290;50.158;8.658;2024-02-04T05:15:25;1.20;;;1.10;;
35110;SDS011;21290;50.158;8.658;2024-02-04T05:17:52;0.85;;;0.85;;
35110;SDS011;21290;50.158;8.658;2024-02-04T05:20:19;3.22;;;1.10;;
35110;SDS011;21290;50.158;8.658;2024-02-04T05:22:46;1.05;;;0.90;;
35110;SDS011;21290;50.158;8.658;2024-02-04T05:25:13;0.85;;;0.70;;
35110;SDS011;21290;50.158;8.658;2024-02-04T05:27:40;1.23;;;0.90;;
35110;SDS011;21290;50.158;8.658;2024-02-04T05:30:08;1.05;;;0.85;;
35110;SDS011;21290;50.158;8.658;2024-02-04T05:32:35;1.58;;;0.90;;
35110;SDS011;21290;50.158;8.658;2024-02-04T05:35:02;0.77;;;0.77;;
35110;SDS011;21290;50.158;8.658;2024-02-04T05:37:29;0.93;;;0.70;;
35110;SDS011;21290;50.158;8.658;2024-02-04T05:39:56;0.77;;;0.77;;
35110;SDS011;21290;50.158;8.658;2024-02-04T05:42:23;0.80;;;0.70;;
35110;SDS011;21290;50.158;8.658;2024-02-04T05:44:49;2.13;;;0.80;;
35110;SDS011;21290;50.158;8.658;2024-02-04T05:47:16;1.58;;;0.60;;
35110;SDS011;21290;50.158;8.658;2024-02-04T05:49:43;0.70;;;0.70;;
35110;SDS011;21290;50.158;8.658;2024-02-04T05:52:11;0.50;;;0.50;;
35110;SDS011;21290;50.158;8.658;2024-02-04T05:54:38;1.42;;;0.80;;
35110;SDS011;21290;50.158;8.658;2024-02-04T05:57:07;0.93;;;0.75;;
35110;SDS011;21290;50.158;8.658;2024-02-04T05:59:34;0.70;;;0.70;;
35110;SDS011;21290;50.158;8.658;2024-02-04T06:02:01;0.70;;;0.70;;
35110;SDS011;21290;50.158;8.658;2024-02-04T06:04:28;1.58;;;0.60;;
35110;SDS011;21290;50.158;8.658;2024-02-04T06:06:55;1.15;;;0.70;;
35110;SDS011;21290;50.158;8.658;2024-02-04T06:09:22;0.88;;;0.70;;
35110;SDS011;21290;50.158;8.658;2024-02-04T06:11:49;0.63;;;0.50;;
35110;SDS011;21290;50.158;8.658;2024-02-04T06:14:15;0.90;;;0.60;;
35110;SDS011;21290;50.158;8.658;2024-02-04T06:16:42;2.15;;;0.60;;
35110;SDS011;21290;50.158;8.658;2024-02-04T06:19:09;1.40;;;0.50;;
35110;SDS011;21290;50.158;8.658;2024-02-04T06:21:37;2.85;;;0.90;;
35110;SDS011;21290;50.158;8.658;2024-02-04T06:24:04;0.50;;;0.50;;
35110;SDS011;21290;50.158;8.658;2024-02-04T06:26:31;0.60;;;0.50;;
35110;SDS011;21290;50.158;8.658;2024-02-04T06:28:58;0.95;;;0.52;;
35110;SDS011;21290;50.158;8.658;2024-02-04T06:31:25;0.40;;;0.40;;
35110;SDS011;21290;50.158;8.658;2024-02-04T06:33:52;1.05;;;0.40;;
35110;SDS011;21290;50.158;8.658;2024-02-04T06:36:19;0.40;;;0.40;;
35110;SDS011;21290;50.158;8.658;2024-02-04T06:38:45;0.30;;;0.30;;
35110;SDS011;21290;50.158;8.658;2024-02-04T06:41:12;2.53;;;0.47;;
35110;SDS011;21290;50.158;8.658;2024-02-04T06:43:38;0.75;;;0.40;;
35110;SDS011;21290;50.158;8.658;2024-02-04T06:46:05;0.28;;;0.28;;
35110;SDS011;21290;50.158;8.658;2024-02-04T06:48:32;0.43;;;0.40;;
35110;SDS011;21290;50.158;8.658;2024-02-04T06:50:59;1.05;;;0.40;;
35110;SDS011;21290;50.158;8.658;2024-02-04T06:53:26;1.40;;;0.40;;
35110;SDS011;21290;50.158;8.658;2024-02-04T06:55:53;0.63;;;0.45;;
35110;SDS011;21290;50.158;8.658;2024-02-04T06:58:19;3.28;;;0.40;;
35110;SDS011;21290;50.158;8.658;2024-02-04T07:00:46;0.30;;;0.30;;
35110;SDS011;21290;50.158;8.658;2024-02-04T07:03:13;4.40;;;0.50;;
35110;SDS011;21290;50.158;8.658;2024-02-04T07:05:40;2.50;;;0.40;;
35110;SDS011;21290;50.158;8.658;2024-02-04T07:08:08;1.30;;;0.55;;
35110;SDS011;21290;50.158;8.658;2024-02-04T07:10:36;1.50;;;0.43;;
35110;SDS011;21290;50.158;8.658;2024-02-04T07:13:02;2.17;;;0.50;;
35110;SDS011;21290;50.158;8.658;2024-02-04T07:15:29;0.45;;;0.40;;
35110;SDS011;21290;50.158;8.658;2024-02-04T07:17:56;0.40;;;0.40;;
35110;SDS011;21290;50.158;8.658;2024-02-04T07:20:23;1.17;;;0.50;;
35110;SDS011;21290;50.158;8.658;2024-02-04T07:22:49;0.65;;;0.50;;
35110;SDS011;21290;50.158;8.658;2024-02-04T07:25:16;3.03;;;0.40;;
35110;SDS011;21290;50.158;8.658;2024-02-04T07:27:43;0.45;;;0.43;;
35110;SDS011;21290;50.158;8.658;2024-02-04T07:30:10;0.50;;;0.50;;
35110;SDS011;21290;50.158;8.658;2024-02-04T07:32:37;0.75;;;0.60;;
35110;SDS011;21290;50.158;8.658;2024-02-04T07:35:04;0.50;;;0.50;;
35110;SDS011;21290;50.158;8.658;2024-02-04T07:37:32;0.60;;;0.60;;
35110;SDS011;21290;50.158;8.658;2024-02-04T07:39:59;2.28;;;0.40;;
35110;SDS011;21290;50.158;8.658;2024-02-04T07:42:27;0.60;;;0.35;;
35110;SDS011;21290;50.158;8.658;2024-02-04T07:44:54;0.38;;;0.38;;
35110;SDS011;21290;50.158;8.658;2024-02-04T07:47:21;0.50;;;0.40;;
35110;SDS011;21290;50.158;8.658;2024-02-04T07:49:48;0.88;;;0.55;;
35110;SDS011;21290;50.158;8.658;2024-02-04T07:52:16;0.57;;;0.50;;
35110;SDS011;21290;50.158;8.658;2024-02-04T07:54:44;2.03;;;0.45;;
35110;SDS011;21290;50.158;8.658;2024-02-04T07:57:11;1.63;;;0.63;;
35110;SDS011;21290;50.158;8.658;2024-02-04T07:59:38;0.50;;;0.50;;
35110;SDS011;21290;50.158;8.658;2024-02-04T08:02:05;0.55;;;0.55;;
35110;SDS011;21290;50.158;8.658;2024-02-04T08:04:33;0.45;;;0.45;;
35110;SDS011;21290;50.158;8.658;2024-02-04T08:07:00;0.95;;;0.50;;
35110;SDS011;21290;50.158;8.658;2024-02-04T08:09:27;0.50;;;0.45;;
35110;SDS011;21290;50.158;8.658;2024-02-04T08:11:53;0.43;;;0.40;;
35110;SDS011;21290;50.158;8.658;2024-02-04T08:14:22;0.60;;;0.50;;
35110;SDS011;21290;50.158;8.658;2024-02-04T08:16:49;0.60;;;0.60;;
35110;SDS011;21290;50.158;8.658;2024-02-04T08:19:16;0.50;;;0.50;;
35110;SDS011;21290;50.158;8.658;2024-02-04T08:21:43;0.40;;;0.40;;
35110;SDS011;21290;50.158;8.658;2024-02-04T08:24:10;0.40;;;0.40;;
35110;SDS011;21290;50.158;8.658;2024-02-04T08:26:36;0.50;;;0.50;;
35110;SDS011;21290;50.158;8.658;2024-02-04T08:29:03;2.47;;;0.50;;
35110;SDS011;21290;50.158;8.658;2024-02-04T08:31:31;0.40;;;0.40;;
35110;SDS011;21290;50.158;8.658;2024-02-04T08:33:59;0.47;;;0.47;;
35110;SDS011;21290;50.158;8.658;2024-02-04T08:36:26;0.65;;;0.57;;
35110;SDS011;21290;50.158;8.658;2024-02-04T08:38:52;0.50;;;0.50;;
35110;SDS011;21290;50.158;8.658;2024-02-04T08:41:19;0.52;;;0.50;;
35110;SDS011;21290;50.158;8.658;2024-02-04T08:43:46;0.50;;;0.50;;
35110;SDS011;21290;50.158;8.658;2024-02-04T08:46:13;1.17;;;0.50;;
35110;SDS011;21290;50.158;8.658;2024-02-04T08:48:40;0.88;;;0.60;;
35110;SDS011;21290;50.158;8.658;2024-02-04T08:51:11;0.65;;;0.60;;
35110;SDS011;21290;50.158;8.658;2024-02-04T08:53:39;0.60;;;0.60;;
35110;SDS011;21290;50.158;8.658;2024-02-04T08:56:06;0.52;;;0.52;;
35110;SDS011;21290;50.158;8.658;2024-02-04T08:58:34;2.60;;;0.40;;
35110;SDS011;21290;50.158;8.658;2024-02-04T09:01:03;0.55;;;0.50;;
35110;SDS011;21290;50.158;8.658;2024-02-04T09:03:31;0.60;;;0.60;;
35110;SDS011;21290;50.158;8.658;2024-02-04T09:05:59;0.57;;;0.57;;
35110;SDS011;21290;50.158;8.658;2024-02-04T09:08:26;0.50;;;0.50;;
35110;SDS011;21290;50.158;8.658;2024-02-04T09:10:53;1.42;;;0.57;;
35110;SDS011;21290;50.158;8.658;2024-02-04T09:13:19;1.83;;;0.60;;
35110;SDS011;21290;50.158;8.658;2024-02-04T09:15:46;1.60;;;0.50;;
35110;SDS011;21290;50.158;8.658;2024-02-04T09:18:14;0.90;;;0.65;;
35110;SDS011;21290;50.158;8.658;2024-02-04T09:20:41;0.45;;;0.40;;
35110;SDS011;21290;50.158;8.658;2024-02-04T09:23:08;0.55;;;0.40;;
35110;SDS011;21290;50.158;8.658;2024-02-04T09:25:35;1.23;;;0.50;;
35110;SDS011;21290;50.158;8.658;2024-02-04T09:28:02;1.90;;;0.70;;
35110;SDS011;21290;50.158;8.658;2024-02-04T09:30:29;2.90;;;0.75;;
35110;SDS011;21290;50.158;8.658;2024-02-04T09:32:56;0.95;;;0.55;;
35110;SDS011;21290;50.158;8.658;2024-02-04T09:35:23;1.95;;;0.68;;
35110;SDS011;21290;50.158;8.658;2024-02-04T09:37:50;0.60;;;0.60;;
35110;SDS011;21290;50.158;8.658;2024-02-04T09:40:17;3.22;;;0.65;;
35110;SDS011;21290;50.158;8.658;2024-02-04T09:42:44;0.75;;;0.60;;
35110;SDS011;21290;50.158;8.658;2024-02-04T09:45:11;1.05;;;0.60;;
35110;SDS011;21290;50.158;8.658;2024-02-04T09:47:41;0.55;;;0.40;;
35110;SDS011;21290;50.158;8.658;2024-02-04T09:50:10;0.60;;;0.60;;
35110;SDS011;21290;50.158;8.658;2024-02-04T09:52:39;1.13;;;0.60;;
35110;SDS011;21290;50.158;8.658;2024-02-04T09:55:07;0.93;;;0.50;;
35110;SDS011;21290;50.158;8.658;2024-02-04T09:57:37;0.70;;;0.70;;
35110;SDS011;21290;50.158;8.658;2024-02-04T10:00:04;0.50;;;0.50;;
35110;SDS011;21290;50.158;8.658;2024-02-04T10:02:32;0.40;;;0.40;;
35110;SDS011;21290;50.158;8.658;2024-02-04T10:04:59;0.50;;;0.50;;
35110;SDS011;21290;50.158;8.658;2024-02-04T10:07:26;1.60;;;0.55;;
35110;SDS011;21290;50.158;8.658;2024-02-04T10:09:53;0.55;;;0.50;;
35110;SDS011;21290;50.158;8.658;2024-02-04T10:12:21;0.50;;;0.50;;
35110;SDS011;21290;50.158;8.658;2024-02-04T10:14:48;0.50;;;0.50;;
35110;SDS011;21290;50.158;8.658;2024-02-04T10:17:15;0.50;;;0.50;;
35110;SDS011;21290;50.158;8.658;2024-02-04T10:19:42;1.02;;;0.80;;
35110;SDS011;21290;50.158;8.658;2024-02-04T10:22:09;0.73;;;0.52;;
35110;SDS011;21290;50.158;8.658;2024-02-04T10:24:36;0.98;;;0.73;;
35110;SDS011;21290;50.158;8.658;2024-02-04T10:27:03;0.65;;;0.60;;
35110;SDS011;21290;50.158;8.658;2024-02-04T10:29:31;1.00;;;0.60;;
35110;SDS011;21290;50.158;8.658;2024-02-04T10:31:57;1.20;;;0.77;;
35110;SDS011;21290;50.158;8.658;2024-02-04T10:34:27;0.68;;;0.60;;
35110;SDS011;21290;50.158;8.658;2024-02-04T10:36:56;0.57;;;0.57;;
35110;SDS011;21290;50.158;8.658;2024-02-04T10:39:23;2.03;;;0.60;;
35110;SDS011;21290;50.158;8.658;2024-02-04T10:41:50;1.00;;;0.50;;
35110;SDS011;21290;50.158;8.658;2024-02-04T10:44:22;0.70;;;0.57;;
35110;SDS011;21290;50.158;8.658;2024-02-04T10:46:51;1.45;;;0.80;;
35110;SDS011;21290;50.158;8.658;2024-02-04T10:49:18;3.08;;;1.13;;
35110;SDS011;21290;50.158;8.658;2024-02-04T10:51:46;1.67;;;0.60;;
35110;SDS011;21290;50.158;8.658;2024-02-04T10:54:15;0.70;;;0.70;;
35110;SDS011;21290;50.158;8.658;2024-02-04T10:56:45;0.88;;;0.40;;
35110;SDS011;21290;50.158;8.658;2024-02-04T10:59:16;0.65;;;0.50;;
35110;SDS011;21290;50.158;8.658;2024-02-04T11:01:45;5.47;;;0.95;;
35110;SDS011;21290;50.158;8.658;2024-02-04T11:04:15;1.17;;;0.75;;
35110;SDS011;21290;50.158;8.658;2024-02-04T11:06:44;0.70;;;0.70;;
35110;SDS011;21290;50.158;8.658;2024-02-04T11:09:12;0.90;;;0.82;;
35110;SDS011;21290;50.158;8.658;2024-02-04T11:11:40;0.68;;;0.68;;
35110;SDS011;21290;50.158;8.658;2024-02-04T11:14:09;0.75;;;0.75;;
35110;SDS011;21290;50.158;8.658;2024-02-04T11:19:16;0.70;;;0.70;;
35110;SDS011;21290;50.158;8.658;2024-02-04T11:25:00;1.02;;;0.77;;
35110;SDS011;21290;50.158;8.658;2024-02-04T11:27:45;0.80;;;0.70;;
35110;SDS011;21290;50.158;8.658;2024-02-04T11:30:12;0.60;;;0.60;;
35110;SDS011;21290;50.158;8.658;2024-02-04T11:32:41;0.65;;;0.60;;
35110;SDS011;21290;50.158;8.658;2024-02-04T11:35:08;0.63;;;0.60;;
35110;SDS011;21290;50.158;8.658;2024-02-04T11:37:38;1.00;;;0.80;;
35110;SDS011;21290;50.158;8.658;2024-02-04T11:40:13;2.53;;;0.70;;
35110;SDS011;21290;50.158;8.658;2024-02-04T11:42:45;1.63;;;0.90;;
35110;SDS011;21290;50.158;8.658;2024-02-04T11:45:13;1.00;;;0.70;;
35110;SDS011;21290;50.158;8.658;2024-02-04T11:47:40;0.70;;;0.70;;
35110;SDS011;21290;50.158;8.658;2024-02-04T11:50:08;1.13;;;0.80;;
35110;SDS011;21290;50.158;8.658;2024-02-04T11:52:37;1.17;;;0.90;;
35110;SDS011;21290;50.158;8.658;2024-02-04T11:55:06;1.83;;;0.98;;
35110;SDS011;21290;50.158;8.658;2024-02-04T11:57:39;0.95;;;0.90;;
35110;SDS011;21290;50.158;8.658;2024-02-04T12:00:07;0.98;;;0.80;;
35110;SDS011;21290;50.158;8.658;2024-02-04T12:02:37;1.88;;;0.80;;
35110;SDS011;21290;50.158;8.658;2024-02-04T12:05:05;1.00;;;0.80;;
35110;SDS011;21290;50.158;8.658;2024-02-04T12:07:33;1.77;;;0.80;;
35110;SDS011;21290;50.158;8.658;2024-02-04T12:10:00;0.70;;;0.70;;
35110;SDS011;21290;50.158;8.658;2024-02-04T12:12:27;0.80;;;0.80;;
35110;SDS011;21290;50.158;8.658;2024-02-04T12:14:54;1.30;;;0.85;;
35110;SDS011;21290;50.158;8.658;2024-02-04T12:17:24;0.60;;;0.60;;
35110;SDS011;21290;50.158;8.658;2024-02-04T12:19:51;2.08;;;1.02;;
35110;SDS011;21290;50.158;8.658;2024-02-04T12:22:19;3.20;;;0.77;;
35110;SDS011;21290;50.158;8.658;2024-02-04T12:24:48;2.03;;;0.80;;
35110;SDS011;21290;50.158;8.658;2024-02-04T12:27:15;1.05;;;0.60;;
35110;SDS011;21290;50.158;8.658;2024-02-04T12:29:43;0.57;;;0.57;;
35110;SDS011;21290;50.158;8.658;2024-02-04T12:32:13;0.60;;;0.60;;
35110;SDS011;21290;50.158;8.658;2024-02-04T12:34:40;2.88;;;0.77;;
35110;SDS011;21290;50.158;8.658;2024-02-04T12:37:08;0.82;;;0.70;;
35110;SDS011;21290;50.158;8.658;2024-02-04T12:39:36;1.05;;;0.80;;
35110;SDS011;21290;50.158;8.658;2024-02-04T12:42:03;1.83;;;0.90;;
35110;SDS011;21290;50.158;8.658;2024-02-04T12:44:31;0.80;;;0.77;;
35110;SDS011;21290;50.158;8.658;2024-02-04T12:46:57;0.90;;;0.80;;
35110;SDS011;21290;50.158;8.658;2024-02-04T12:49:24;1.02;;;0.98;;
35110;SDS011;21290;50.158;8.658;2024-02-04T12:51:52;2.40;;;1.00;;
35110;SDS011;21290;50.158;8.658;2024-02-04T12:54:21;1.08;;;0.98;;
35110;SDS011;21290;50.158;8.658;2024-02-04T12:56:48;1.13;;;0.82;;
35110;SDS011;21290;50.158;8.658;2024-02-04T12:59:26;0.80;;;0.80;;
35110;SDS011;21290;50.158;8.658;2024-02-04T13:02:03;0.60;;;0.60;;
35110;SDS011;21290;50.158;8.658;2024-02-04T13:04:38;0.60;;;0.60;;
35110;SDS011;21290;50.158;8.658;2024-02-04T13:07:06;1.13;;;0.98;;
35110;SDS011;21290;50.158;8.658;2024-02-04T13:09:36;0.82;;;0.80;;
35110;SDS011;21290;50.158;8.658;2024-02-04T13:12:03;0.70;;;0.70;;
35110;SDS011;21290;50.158;8.658;2024-02-04T13:14:38;1.90;;;1.00;;
35110;SDS011;21290;50.158;8.658;2024-02-04T13:17:05;1.10;;;1.00;;
35110;SDS011;21290;50.158;8.658;2024-02-04T13:19:36;1.10;;;0.88;;
35110;SDS011;21290;50.158;8.658;2024-02-04T13:22:04;1.00;;;0.90;;
35110;SDS011;21290;50.158;8.658;2024-02-04T13:24:32;1.35;;;1.00;;
35110;SDS011;21290;50.158;8.658;2024-02-04T13:26:59;0.70;;;0.70;;
35110;SDS011;21290;50.158;8.658;2024-02-04T13:29:29;1.27;;;0.70;;
35110;SDS011;21290;50.158;8.658;2024-02-04T13:31:56;1.88;;;0.80;;
35110;SDS011;21290;50.158;8.658;2024-02-04T13:34:24;0.70;;;0.70;;
35110;SDS011;21290;50.158;8.658;2024-02-04T13:36:51;1.55;;;1.02;;
35110;SDS011;21290;50.158;8.658;2024-02-04T13:39:18;1.08;;;0.70;;
35110;SDS011;21290;50.158;8.658;2024-02-04T13:41:45;1.45;;;0.73;;
35110;SDS011;21290;50.158;8.658;2024-02-04T13:44:11;0.57;;;0.57;;
35110;SDS011;21290;50.158;8.658;2024-02-04T13:46:38;1.65;;;0.88;;
35110;SDS011;21290;50.158;8.658;2024-02-04T13:49:09;1.13;;;1.00;;
35110;SDS011;21290;50.158;8.658;2024-02-04T13:51:36;0.50;;;0.50;;
35110;SDS011;21290;50.158;8.658;2024-02-04T13:54:10;0.88;;;0.80;;
35110;SDS011;21290;50.158;8.658;2024-02-04T13:56:41;2.25;;;0.70;;
35110;SDS011;21290;50.158;8.658;2024-02-04T13:59:08;1.45;;;0.82;;
35110;SDS011;21290;50.158;8.658;2024-02-04T14:01:34;1.65;;;0.73;;
35110;SDS011;21290;50.158;8.658;2024-02-04T14:04:01;1.83;;;0.90;;
35110;SDS011;21290;50.158;8.658;2024-02-04T14:06:29;3.40;;;0.90;;
35110;SDS011;21290;50.158;8.658;2024-02-04T14:08:56;1.25;;;0.82;;
35110;SDS011;21290;50.158;8.658;2024-02-04T14:11:23;3.53;;;1.00;;
35110;SDS011;21290;50.158;8.658;2024-02-04T14:13:49;2.53;;;1.00;;
35110;SDS011;21290;50.158;8.658;2024-02-04T14:16:16;0.68;;;0.68;;
35110;SDS011;21290;50.158;8.658;2024-02-04T14:18:43;1.05;;;0.80;;
35110;SDS011;21290;50.158;8.658;2024-02-04T14:21:13;1.48;;;1.02;;
35110;SDS011;21290;50.158;8.658;2024-02-04T14:23:40;0.70;;;0.70;;
35110;SDS011;21290;50.158;8.658;2024-02-04T14:26:07;2.20;;;0.80;;
35110;SDS011;21290;50.158;8.658;2024-02-04T14:28:41;1.17;;;1.08;;
35110;SDS011;21290;50.158;8.658;2024-02-04T14:31:08;1.10;;;1.00;;
35110;SDS011;21290;50.158;8.658;2024-02-04T14:33:35;1.38;;;1.20;;
35110;SDS011;21290;50.158;8.658;2024-02-04T14:36:02;1.90;;;1.15;;
35110;SDS011;21290;50.158;8.658;2024-02-04T14:38:30;0.93;;;0.93;;
35110;SDS011;21290;50.158;8.658;2024-02-04T14:40:58;0.90;;;0.70;;
35110;SDS011;21290;50.158;8.658;2024-02-04T14:43:25;0.70;;;0.70;;
35110;SDS011;21290;50.158;8.658;2024-02-04T14:45:53;0.77;;;0.70;;
35110;SDS011;21290;50.158;8.658;2024-02-04T14:48:24;3.00;;;0.80;;
35110;SDS011;21290;50.158;8.658;2024-02-04T14:50:51;0.70;;;0.70;;
35110;SDS011;21290;50.158;8.658;2024-02-04T14:53:18;1.40;;;1.00;;
35110;SDS011;21290;50.158;8.658;2024-02-04T14:55:44;0.90;;;0.70;;
35110;SDS011;21290;50.158;8.658;2024-02-04T14:58:11;1.23;;;0.85;;
35110;SDS011;21290;50.158;8.658;2024-02-04T15:00:38;0.70;;;0.70;;